Historyczne dane pomiarowe

Dodano dane terminowe – wersja testowa.

Dane z okresu 1951-2019

Wersja bazy: 1.34 [2019-03-16, lista zmian], aktualizacja planowana na 2019-04-15

Dane meteo z obszaru Polski uzyskane na podstawie danych udostępnionych przez Instytut Meteorologii i Gospodarki Wodnej – Państwowy Instytut Badawczy.

 

Wybierz Datę:    

       

TemperaturaWilgotnośćWiatrCiśnienieOpadyŚniegCzas trwania zjawisk
 Stacja t tx tn tng RH VA  wxwx mslp ppp RRR   cm mm wxwxwxwxwxwxwx
1984-05-15 12.1 16.6 8.9 8.9 82.8- 5.3 2.3---- 0.1------------
1984-05-16 13.1 23.6 2.2 1.3 76.3- 5.0 1.0---- 0.2------------
1984-05-17 16.4 20.8 8.6 7.5 68.5- 4.3 3.7---- 0.0------------
1984-05-18 13.9 20.2 7.5 5.6 70.8- 4.0 3.3---- 0.0------------
1984-05-19 13.5 21.2 2.2 1.1 73.0- 1.3 4.0---- 0.0------------
1984-05-20 16.2 23.2 6.7 4.5 68.8- 2.0 5.3---- 0.0------------
1984-05-21 11.8 18.8 5.4 4.3 85.0- 8.0 2.0---- 0.8------------
1984-05-22 13.9 16.8 11.1 10.4 68.8- 3.3 3.3---- 0.0------------
1984-05-23 11.8 16.9 4.9 2.5 79.0- 7.3 3.3---- 4.2------------
1984-05-24 13.4 17.6 10.5 7.2 63.0- 5.0 4.0---- 0.0------------
1984-05-25 11.1 17.9 4.9 4.1 83.3- 6.7 1.3---- 0.2------------
1984-05-26 11.5 17.8 6.0 4.9 84.5- 7.0 0.0---- 0.6------------
1984-05-27 12.2 20.0 2.2 2.3 79.3- 2.7 3.0---- 0.0------------
1984-05-28 12.2 19.7 4.2 3.1 84.0- 6.7 0.7---- 0.2------------
1984-05-29 12.9 16.5 7.7 6.5 78.0- 6.7 3.7---- 0.0------------
1984-05-30 11.2 17.0 2.8 1.6 87.5- 5.7 1.7---- 2.2------------
1984-05-31 12.0 17.8 4.8 2.9 86.5- 7.7 1.7---- 0.0------------
1984-06-01 14.5 19.1 10.3 9.0 81.5- 6.3 0.7---- 0.0------------
1984-06-02 14.8 21.6 5.7 4.8 83.5- 5.3 0.7---- 1.2------------
1984-06-03 14.7 22.9 5.2 4.8 79.5- 3.3 2.3---- 0.0------------
1984-06-04 16.5 22.4 9.7 8.0 83.8- 5.0 3.3---- 11.4------------
1984-06-05 15.6 19.2 9.6 10.0 71.5- 6.0 7.7---- 0.0------------
1984-06-06 18.3 21.2 14.9 12.5 60.0- 4.0 5.7---- 0.0------------
1984-06-07 14.0 19.0 6.3 4.5 81.0- 5.3 1.3---- 20.3------------
1984-06-08 12.0 18.1 8.2 8.0 81.5- 6.7 2.0---- 5.8------------
1984-06-09 10.0 13.5 8.2 8.0 94.8- 8.0 2.0---- 7.4------------
1984-06-10 10.4 14.3 4.5 2.9 88.5- 6.7 2.0---- 2.5------------
1984-06-11 10.8 15.0 4.5 3.0 74.5- 5.3 3.3---- 0.0------------
1984-06-12 8.7 13.2 3.0 1.5 72.0- 4.0 1.7---- 0.0------------
1984-06-13 8.7 16.8 -2.2 -3.4 70.5- 2.7 0.3---- 0.7------------
206.8 ms

 

Źródłem pochodzenia danych jest Instytut Meteorologii i Gospodarki Wodnej – Państwowy Instytut Badawczy. Dane Instytutu Meteorologii i Gospodarki Wodnej – Państwowego Instytutu Badawczego zostały przetworzone.

Dane źródłowe można odnaleźć na stronie https://dane.imgw.pl